createdAt,value
2023-03-06T00:01:52.701Z,36.53
2023-03-06T00:04:19.551Z,41.88
2023-03-06T00:06:46.626Z,37.78
2023-03-06T00:09:13.505Z,36.45
2023-03-06T00:11:40.335Z,34.75
2023-03-06T00:14:07.195Z,36.30
2023-03-06T00:16:34.182Z,36.45
2023-03-06T00:19:01.102Z,35.95
2023-03-06T00:21:47.804Z,35.00
2023-03-06T00:24:28.342Z,32.53
2023-03-06T00:26:55.325Z,34.00
2023-03-06T00:29:22.382Z,34.85
2023-03-06T00:31:49.360Z,36.70
2023-03-06T00:34:36.839Z,34.33
2023-03-06T00:37:17.655Z,34.42
2023-03-06T00:39:44.839Z,34.17
2023-03-06T00:42:12.073Z,36.15
2023-03-06T00:44:39.005Z,37.35
2023-03-06T00:47:06.033Z,37.58
2023-03-06T00:49:32.923Z,38.28
2023-03-06T00:52:19.818Z,36.00
2023-03-06T00:55:20.801Z,36.60
2023-03-06T00:58:01.350Z,35.92
2023-03-06T01:00:28.409Z,37.72
2023-03-06T01:02:56.114Z,36.15
2023-03-06T01:05:23.025Z,35.67
2023-03-06T01:07:49.848Z,35.70
2023-03-06T01:10:36.912Z,38.25
2023-03-06T01:13:18.071Z,35.20
2023-03-06T01:15:45.127Z,38.10
2023-03-06T01:18:12.068Z,34.28
2023-03-06T01:20:58.832Z,34.53
2023-03-06T01:23:39.907Z,34.25
2023-03-06T01:26:26.845Z,37.75
2023-03-06T01:29:07.452Z,36.17
2023-03-06T01:31:34.958Z,37.40
2023-03-06T01:34:02.173Z,35.80
2023-03-06T01:36:29.145Z,34.17
2023-03-06T01:38:56.937Z,34.28
2023-03-06T01:41:24.498Z,37.55
2023-03-06T01:43:51.637Z,36.35
2023-03-06T01:46:35.240Z,35.08
2023-03-06T01:49:20.949Z,36.22
2023-03-06T01:52:01.867Z,38.28
2023-03-06T01:54:52.936Z,34.47
2023-03-06T01:57:36.696Z,34.40
2023-03-06T02:00:25.101Z,33.92
2023-03-06T02:03:05.645Z,35.10
2023-03-06T02:05:33.358Z,37.15
2023-03-06T02:08:01.075Z,33.40
2023-03-06T02:10:27.978Z,34.63
2023-03-06T02:12:54.954Z,33.42
2023-03-06T02:15:42.841Z,34.08
2023-03-06T02:18:43.853Z,33.67
2023-03-06T02:21:48.844Z,35.47
2023-03-06T02:27:30.070Z,31.90
2023-03-06T02:29:56.909Z,33.55
2023-03-06T02:32:24.014Z,33.20
2023-03-06T02:34:54.802Z,39.97
2023-03-06T02:37:23.006Z,41.00
2023-03-06T02:40:08.357Z,46.42
2023-03-06T02:42:35.329Z,38.35
2023-03-06T02:45:07.482Z,43.38
2023-03-06T02:47:34.337Z,45.97
2023-03-06T02:50:01.399Z,42.03
2023-03-06T02:52:48.861Z,45.25
2023-03-06T02:55:42.559Z,43.83
2023-03-06T02:58:09.915Z,41.92
2023-03-06T03:00:39.432Z,42.13
2023-03-06T03:03:08.951Z,45.83
2023-03-06T03:05:35.851Z,40.65
2023-03-06T03:08:31.896Z,39.28
2023-03-06T03:11:32.898Z,39.55
2023-03-06T03:14:13.649Z,39.88
2023-03-06T03:16:40.478Z,37.65
2023-03-06T03:19:07.466Z,41.72
2023-03-06T03:21:54.915Z,36.30
2023-03-06T03:24:55.931Z,39.28
2023-03-06T03:27:36.391Z,38.97
2023-03-06T03:30:05.023Z,36.58
2023-03-06T03:32:32.151Z,35.45
2023-03-06T03:34:59.443Z,38.33
2023-03-06T03:37:26.471Z,36.58
2023-03-06T03:39:54.351Z,33.42
2023-03-06T03:42:21.185Z,38.17
2023-03-06T03:44:48.181Z,37.50
2023-03-06T03:47:16.308Z,38.15
2023-03-06T03:49:43.256Z,37.22
2023-03-06T03:52:10.281Z,39.60
2023-03-06T03:54:58.940Z,38.65
2023-03-06T03:57:53.032Z,39.95
2023-03-06T04:00:34.457Z,37.13
2023-03-06T04:03:09.224Z,37.13
2023-03-06T04:05:40.196Z,36.05
2023-03-06T04:08:08.841Z,37.97
2023-03-06T04:10:39.666Z,39.88
2023-03-06T04:13:10.067Z,37.78
2023-03-06T04:15:41.286Z,37.60
2023-03-06T04:18:08.359Z,36.72
2023-03-06T04:20:49.921Z,34.70
2023-03-06T04:25:58.352Z,32.65
2023-03-06T04:28:25.476Z,34.05
2023-03-06T04:30:52.616Z,37.00
2023-03-06T04:33:20.596Z,36.42
2023-03-06T04:35:48.769Z,36.60
2023-03-06T04:38:21.356Z,37.17
2023-03-06T04:40:49.886Z,36.17
2023-03-06T04:43:17.015Z,37.95
2023-03-06T04:45:44.055Z,36.03
2023-03-06T04:48:14.559Z,36.22
2023-03-06T04:50:41.854Z,36.50
2023-03-06T04:53:29.032Z,37.22
2023-03-06T04:56:23.351Z,34.95
2023-03-06T04:59:04.355Z,38.30
2023-03-06T05:01:31.282Z,41.10
2023-03-06T05:03:58.140Z,37.03
2023-03-06T05:06:24.984Z,38.20
2023-03-06T05:08:51.833Z,37.20
2023-03-06T05:11:18.872Z,37.67
2023-03-06T05:13:45.715Z,40.20
2023-03-06T05:16:12.653Z,35.38
2023-03-06T05:18:39.735Z,40.05
2023-03-06T05:21:26.968Z,37.50
2023-03-06T05:24:07.696Z,39.58
2023-03-06T05:26:34.848Z,39.20
2023-03-06T05:29:01.880Z,38.65
2023-03-06T05:31:28.860Z,40.03
2023-03-06T05:33:57.918Z,38.85
2023-03-06T05:36:25.537Z,36.55
2023-03-06T05:38:52.617Z,36.75
2023-03-06T05:41:20.731Z,36.65
2023-03-06T05:44:08.011Z,38.47
2023-03-06T05:46:49.569Z,34.05
2023-03-06T05:49:17.050Z,33.97
2023-03-06T05:52:04.011Z,36.30
2023-03-06T05:55:06.988Z,33.33
2023-03-06T05:57:48.179Z,34.42
2023-03-06T06:00:36.001Z,33.63
2023-03-06T06:03:21.149Z,34.05
2023-03-06T06:05:47.971Z,34.80
2023-03-06T06:08:14.886Z,32.95
2023-03-06T06:11:01.992Z,34.45
2023-03-06T06:14:02.963Z,33.22
2023-03-06T06:17:03.979Z,32.63
2023-03-06T06:19:45.243Z,31.17
2023-03-06T06:22:31.968Z,35.42
2023-03-06T06:25:12.925Z,34.40
2023-03-06T06:27:39.950Z,32.42
2023-03-06T06:30:08.299Z,31.08
2023-03-06T06:32:36.545Z,32.10
2023-03-06T06:35:24.008Z,32.97
2023-03-06T06:38:04.601Z,32.33
2023-03-06T06:40:31.547Z,34.83
2023-03-06T06:42:58.431Z,32.15
2023-03-06T06:45:25.441Z,33.10
2023-03-06T06:47:52.341Z,32.78
2023-03-06T06:50:19.466Z,32.33
2023-03-06T06:53:07.010Z,30.23
2023-03-06T06:56:08.030Z,31.20
2023-03-06T06:58:48.573Z,32.28
2023-03-06T07:01:15.429Z,30.17
2023-03-06T07:03:42.409Z,32.85
2023-03-06T07:06:09.425Z,32.08
2023-03-06T07:08:36.883Z,31.65
2023-03-06T07:11:09.471Z,30.70
2023-03-06T07:13:36.560Z,32.85
2023-03-06T07:16:27.025Z,32.80
2023-03-06T07:19:08.236Z,33.20
2023-03-06T07:21:55.075Z,29.65
2023-03-06T07:24:49.146Z,32.63
2023-03-06T07:27:29.666Z,33.90
2023-03-06T07:29:56.554Z,34.63
2023-03-06T07:32:23.461Z,31.48
2023-03-06T07:34:50.304Z,32.60
2023-03-06T07:37:37.030Z,32.25
2023-03-06T07:40:19.686Z,32.10
2023-03-06T07:42:46.774Z,31.73
2023-03-06T07:45:17.462Z,32.65
2023-03-06T07:47:44.342Z,32.83
2023-03-06T07:50:11.956Z,33.97
2023-03-06T07:52:59.022Z,29.90
2023-03-06T07:56:00.317Z,30.40
2023-03-06T07:58:43.713Z,30.95
2023-03-06T08:01:35.046Z,31.23
2023-03-06T08:06:42.638Z,32.20
2023-03-06T08:09:30.069Z,32.15
2023-03-06T08:12:31.049Z,28.42
2023-03-06T08:15:32.073Z,27.85
2023-03-06T08:18:33.122Z,27.30
2023-03-06T08:21:37.088Z,27.50
2023-03-06T08:24:18.630Z,33.03
2023-03-06T08:26:46.027Z,30.50
2023-03-06T08:29:13.557Z,32.80
2023-03-06T08:31:44.788Z,33.13
2023-03-06T08:34:15.005Z,28.10
2023-03-06T08:36:42.104Z,26.88
2023-03-06T08:39:09.267Z,28.35
2023-03-06T08:41:37.429Z,26.63
2023-03-06T08:44:05.315Z,30.95
2023-03-06T08:46:33.296Z,27.83
2023-03-06T08:49:01.737Z,29.30
2023-03-06T08:51:49.067Z,28.65
2023-03-06T08:54:29.590Z,29.40
2023-03-06T08:56:56.419Z,29.90
2023-03-06T08:59:24.779Z,27.40
2023-03-06T09:02:13.185Z,29.42
2023-03-06T09:05:14.073Z,28.80
2023-03-06T09:08:15.073Z,27.52
2023-03-06T09:10:55.997Z,27.10
2023-03-06T09:13:22.898Z,20.48
2023-03-06T09:17:33.119Z,28.08
2023-03-06T09:20:21.242Z,26.20
2023-03-06T09:23:16.116Z,26.15
2023-03-06T09:26:04.864Z,25.48
2023-03-06T09:28:31.919Z,25.17
2023-03-06T09:30:58.942Z,27.67
2023-03-06T09:33:28.581Z,25.15
2023-03-06T09:35:56.850Z,27.30
2023-03-06T09:38:44.119Z,23.95
2023-03-06T09:41:33.118Z,26.52
2023-03-06T09:44:09.144Z,24.98
2023-03-06T09:46:42.211Z,29.10
2023-03-06T09:49:34.050Z,24.67
2023-03-06T09:52:32.122Z,24.77
2023-03-06T09:55:39.129Z,26.33
2023-03-06T09:58:42.130Z,30.13
2023-03-06T10:01:34.963Z,26.88
2023-03-06T10:04:31.941Z,24.65
2023-03-06T10:07:14.970Z,28.48
2023-03-06T10:09:57.035Z,25.08
2023-03-06T10:12:32.829Z,24.88
2023-03-06T10:15:34.184Z,26.00
2023-03-06T10:18:14.818Z,28.27
2023-03-06T10:21:30.132Z,25.35
2023-03-06T10:24:34.709Z,26.15
2023-03-06T10:27:16.356Z,24.92
2023-03-06T10:30:02.121Z,22.83
2023-03-06T10:32:48.855Z,24.65
2023-03-06T10:35:23.988Z,27.05
2023-03-06T10:37:51.414Z,27.85
2023-03-06T10:40:25.097Z,25.73
2023-03-06T10:43:01.583Z,21.67
2023-03-06T10:45:49.276Z,20.92
2023-03-06T10:48:42.498Z,21.73
2023-03-06T10:51:45.310Z,22.17
2023-03-06T10:54:27.145Z,24.75
2023-03-06T10:56:54.177Z,23.38
2023-03-06T10:59:25.303Z,18.75
2023-03-06T11:02:19.248Z,18.45
2023-03-06T11:05:08.157Z,17.40
2023-03-06T11:07:59.832Z,16.67
2023-03-06T11:10:27.853Z,19.60
2023-03-06T11:13:30.155Z,20.13
2023-03-06T11:16:38.215Z,20.02
2023-03-06T11:19:43.209Z,20.77
2023-03-06T11:24:55.109Z,18.90
2023-03-06T11:27:38.251Z,20.75
2023-03-06T11:30:46.421Z,17.45
2023-03-06T11:33:39.282Z,21.45
2023-03-06T11:36:23.500Z,21.98
2023-03-06T11:39:10.220Z,22.20
2023-03-06T11:42:10.232Z,21.77
2023-03-06T11:44:44.544Z,21.98
2023-03-06T11:47:36.886Z,22.65
2023-03-06T11:50:35.955Z,22.67
2023-03-06T11:53:28.223Z,21.40
2023-03-06T11:56:32.254Z,25.00
2023-03-06T11:59:23.628Z,22.58
2023-03-06T12:02:27.572Z,21.83
2023-03-06T12:05:31.664Z,25.15
2023-03-06T12:08:12.708Z,25.53
2023-03-06T12:11:24.254Z,23.58
2023-03-06T12:14:24.163Z,23.92
2023-03-06T12:17:42.292Z,23.38
2023-03-06T12:20:51.251Z,21.50
2023-03-06T12:23:59.885Z,22.17
2023-03-06T12:26:51.074Z,24.77
2023-03-06T12:29:57.256Z,23.55
2023-03-06T12:33:04.063Z,23.75
2023-03-06T12:36:15.248Z,25.25
2023-03-06T12:38:59.316Z,22.85
2023-03-06T12:41:44.029Z,24.35
2023-03-06T12:44:32.226Z,22.50
2023-03-06T12:47:15.722Z,24.45
2023-03-06T12:50:15.279Z,24.07
2023-03-06T12:53:25.242Z,23.27
2023-03-06T12:56:06.459Z,25.00
2023-03-06T12:58:35.467Z,22.83
2023-03-06T13:01:40.031Z,23.58
2023-03-06T13:04:35.712Z,27.17
2023-03-06T13:07:34.317Z,23.88
2023-03-06T13:10:55.311Z,24.45
2023-03-06T13:14:01.295Z,23.95
2023-03-06T13:17:02.313Z,25.77
2023-03-06T13:19:42.899Z,23.55
2023-03-06T13:22:48.277Z,23.08
2023-03-06T13:25:37.675Z,22.67
2023-03-06T13:28:26.896Z,23.75
2023-03-06T13:30:54.177Z,25.48
2023-03-06T13:33:44.265Z,23.55
2023-03-06T13:36:34.313Z,22.88
2023-03-06T13:39:14.891Z,23.00
2023-03-06T13:42:00.185Z,25.63
2023-03-06T13:44:27.150Z,22.80
2023-03-06T13:47:02.875Z,23.20
2023-03-06T13:49:50.292Z,27.17
2023-03-06T13:53:13.305Z,23.70
2023-03-06T13:55:53.831Z,24.02
2023-03-06T13:58:45.213Z,22.38
2023-03-06T14:01:21.343Z,21.48
2023-03-06T14:04:05.307Z,20.83
2023-03-06T14:06:35.249Z,22.13
2023-03-06T14:09:36.295Z,22.52
2023-03-06T14:12:47.310Z,21.02
2023-03-06T14:16:03.414Z,21.40
2023-03-06T14:19:10.316Z,21.58
2023-03-06T14:21:57.829Z,20.73
2023-03-06T14:24:38.809Z,23.75
2023-03-06T14:27:05.976Z,22.48
2023-03-06T14:29:33.965Z,21.50
2023-03-06T14:32:02.084Z,20.50
2023-03-06T14:34:32.707Z,18.23
2023-03-06T14:37:32.302Z,22.30
2023-03-06T14:40:21.020Z,22.42
2023-03-06T14:42:48.041Z,22.13
2023-03-06T14:45:20.231Z,22.23
2023-03-06T14:47:52.050Z,21.10
2023-03-06T14:50:28.460Z,22.73
2023-03-06T14:53:32.348Z,24.90
2023-03-06T14:56:21.922Z,23.60
2023-03-06T14:59:00.033Z,21.55
2023-03-06T15:01:53.400Z,22.65
2023-03-06T15:04:57.346Z,22.92
2023-03-06T15:07:51.375Z,23.75
2023-03-06T15:10:35.079Z,24.63
2023-03-06T15:13:31.350Z,22.85
2023-03-06T15:16:32.412Z,25.23
2023-03-06T15:19:35.382Z,24.70
2023-03-06T15:22:31.239Z,23.05
2023-03-06T15:25:17.171Z,23.27
2023-03-06T15:27:59.468Z,24.58
2023-03-06T15:30:37.130Z,26.27
2023-03-06T15:33:18.190Z,23.02
2023-03-06T15:36:17.330Z,22.88
2023-03-06T15:39:54.359Z,20.90
2023-03-06T15:42:36.307Z,21.30
2023-03-06T15:45:18.894Z,17.73
2023-03-06T15:47:48.008Z,23.75
2023-03-06T15:50:25.521Z,23.58
2023-03-06T15:53:12.441Z,24.42
2023-03-06T15:56:13.385Z,21.60
2023-03-06T15:58:54.108Z,25.85
2023-03-06T16:01:21.071Z,25.17
2023-03-06T16:03:48.183Z,23.52
2023-03-06T16:06:20.648Z,24.25
2023-03-06T16:08:47.645Z,24.67
2023-03-06T16:11:43.782Z,22.27
2023-03-06T16:14:25.204Z,25.65
2023-03-06T16:17:12.399Z,22.13
2023-03-06T16:20:13.391Z,24.10
2023-03-06T16:22:54.867Z,23.83
2023-03-06T16:25:24.208Z,26.23
2023-03-06T16:27:55.600Z,20.63
2023-03-06T16:30:24.834Z,22.90
2023-03-06T16:32:52.054Z,21.30
2023-03-06T16:35:39.461Z,25.60
2023-03-06T16:38:40.420Z,23.17
2023-03-06T16:41:21.310Z,25.15
2023-03-06T16:44:08.406Z,23.20
2023-03-06T16:46:50.540Z,23.45
2023-03-06T16:49:23.523Z,22.63
2023-03-06T16:51:51.494Z,23.77
2023-03-06T16:54:18.811Z,23.35
2023-03-06T16:57:06.452Z,24.33
2023-03-06T16:59:46.996Z,24.50
2023-03-06T17:02:14.062Z,22.02
2023-03-06T17:04:41.081Z,25.00
2023-03-06T17:07:08.319Z,22.73
2023-03-06T17:09:35.342Z,23.88
2023-03-06T17:12:02.435Z,25.05
2023-03-06T17:14:29.908Z,24.33
2023-03-06T17:17:17.418Z,23.17
2023-03-06T17:19:58.024Z,25.13
2023-03-06T17:22:25.403Z,25.77
2023-03-06T17:24:52.388Z,25.42
2023-03-06T17:27:20.826Z,27.10
2023-03-06T17:29:48.471Z,26.08
2023-03-06T17:32:15.432Z,27.52
2023-03-06T17:35:02.468Z,27.02
2023-03-06T17:38:03.470Z,27.23
2023-03-06T17:40:44.068Z,25.58
2023-03-06T17:43:10.924Z,27.02
2023-03-06T17:45:37.970Z,26.42
2023-03-06T17:48:05.080Z,26.17
2023-03-06T17:50:32.089Z,23.90
2023-03-06T17:52:59.192Z,26.27
2023-03-06T17:55:27.318Z,26.50
2023-03-06T17:57:54.317Z,25.83
2023-03-06T18:00:23.013Z,25.88
2023-03-06T18:02:50.149Z,25.50
2023-03-06T18:05:18.213Z,24.27
2023-03-06T18:07:45.242Z,26.00
2023-03-06T18:10:12.430Z,23.35
2023-03-06T18:12:42.530Z,25.33
2023-03-06T18:15:29.450Z,26.98
2023-03-06T18:18:30.484Z,26.05
2023-03-06T18:21:13.651Z,27.70
2023-03-06T18:23:41.188Z,26.77
2023-03-06T18:26:21.507Z,27.92
2023-03-06T18:28:52.982Z,29.92
2023-03-06T18:31:25.424Z,31.05
2023-03-06T18:33:54.313Z,30.83
2023-03-06T18:36:43.493Z,31.33
2023-03-06T18:39:44.485Z,29.23
2023-03-06T18:42:26.322Z,28.98
2023-03-06T18:44:53.273Z,32.10
2023-03-06T18:47:20.221Z,30.42
2023-03-06T18:50:09.507Z,28.98
2023-03-06T18:52:50.221Z,31.27
2023-03-06T18:55:17.213Z,32.25
2023-03-06T18:57:44.197Z,30.70
2023-03-06T19:00:11.725Z,31.15
2023-03-06T19:02:38.776Z,32.58
2023-03-06T19:05:06.152Z,29.88
2023-03-06T19:07:53.509Z,35.30
2023-03-06T19:10:38.966Z,30.48
2023-03-06T19:13:20.517Z,32.03
2023-03-06T19:16:22.529Z,30.10
2023-03-06T19:19:23.536Z,31.52
2023-03-06T19:22:24.489Z,31.30
2023-03-06T19:25:25.510Z,30.00
2023-03-06T19:28:06.325Z,28.25
2023-03-06T19:30:33.369Z,33.42
2023-03-06T19:33:00.282Z,34.92
2023-03-06T19:35:27.673Z,34.25
2023-03-06T19:38:14.507Z,37.17
2023-03-06T19:40:55.135Z,33.53
2023-03-06T19:43:23.110Z,29.67
2023-03-06T19:45:50.365Z,30.00
2023-03-06T19:48:37.501Z,35.53
2023-03-06T19:51:39.517Z,35.30
2023-03-06T19:54:40.541Z,31.85
2023-03-06T19:57:21.362Z,32.28
2023-03-06T19:59:51.800Z,32.17
2023-03-06T20:02:39.518Z,35.65
2023-03-06T20:05:20.220Z,33.00
2023-03-06T20:08:07.621Z,38.13
2023-03-06T20:11:09.590Z,39.00
2023-03-06T20:14:11.546Z,34.50
2023-03-06T20:17:12.638Z,67.22
2023-03-06T20:19:53.291Z,48.78
2023-03-06T20:22:40.514Z,44.78
2023-03-06T20:25:21.092Z,35.05
2023-03-06T20:27:48.004Z,38.38
2023-03-06T20:30:15.166Z,41.63
2023-03-06T20:32:42.222Z,41.58
2023-03-06T20:35:09.446Z,42.33
2023-03-06T20:37:56.546Z,45.83
2023-03-06T20:41:02.548Z,43.00
2023-03-06T20:44:04.548Z,47.13
2023-03-06T20:46:45.972Z,39.15
2023-03-06T20:49:33.565Z,37.67
2023-03-06T20:52:34.587Z,40.70
2023-03-06T20:55:51.266Z,42.20
2023-03-06T20:59:07.502Z,45.95
2023-03-06T21:09:03.916Z,38.53
2023-03-06T21:12:13.122Z,40.58
2023-03-06T21:19:44.041Z,46.78
2023-03-06T21:22:18.231Z,47.33
2023-03-06T21:25:00.329Z,42.90
2023-03-06T21:27:52.449Z,41.60
2023-03-06T21:31:24.674Z,40.88
2023-03-06T21:35:10.129Z,40.83
2023-03-06T21:45:40.653Z,39.80
2023-03-06T21:48:58.458Z,41.05
2023-03-06T21:52:17.159Z,39.38
2023-03-06T21:59:15.165Z,39.70
2023-03-06T22:02:07.829Z,40.35
2023-03-06T22:05:03.455Z,39.55
2023-03-06T22:08:02.771Z,37.63
2023-03-06T22:18:23.157Z,47.28
2023-03-06T22:21:27.988Z,41.35
2023-03-06T22:24:08.575Z,39.53
2023-03-06T22:26:50.175Z,41.42
2023-03-06T22:29:34.114Z,40.83
2023-03-06T22:32:06.851Z,43.00
2023-03-06T22:34:43.237Z,42.88
2023-03-06T22:37:35.881Z,40.92
2023-03-06T22:40:28.972Z,38.42
2023-03-06T22:43:03.321Z,38.78
2023-03-06T22:45:36.494Z,39.33
2023-03-06T22:48:11.179Z,40.78
2023-03-06T22:50:53.230Z,42.70
2023-03-06T22:53:45.661Z,39.10
2023-03-06T23:02:21.198Z,41.88
2023-03-06T23:05:01.015Z,38.80
2023-03-06T23:07:58.979Z,48.38
2023-03-06T23:11:05.741Z,39.50
2023-03-06T23:14:13.545Z,40.00
2023-03-06T23:17:18.225Z,38.22
2023-03-06T23:23:54.360Z,41.05
2023-03-06T23:26:26.469Z,41.17
2023-03-06T23:29:02.433Z,41.75
2023-03-06T23:32:02.994Z,40.22
2023-03-06T23:34:45.640Z,37.97
2023-03-06T23:37:23.492Z,44.03
2023-03-06T23:40:00.028Z,37.33
2023-03-06T23:42:51.837Z,41.10
2023-03-06T23:45:42.408Z,39.85
2023-03-06T23:48:40.831Z,38.17
2023-03-06T23:54:33.900Z,37.63
2023-03-06T23:57:29.110Z,40.05
